Time;durP1;ratioP1;P1;durP2;ratioP2;P2;SDS_P1;SDS_P2;PMS_P1;PMS_P2;Temp;Humidity;BMP_temperature;BMP_pressure;BME280_temperature;BME280_humidity;BME280_pressure;Samples;Min_cycle;Max_cycle;Signal;HPM_P1;HPM_P2
2024/04/02 00:00:18;;;;;;;0.60;0.60;;;;;;;;;;6214735;23;20520;-50
2024/04/02 00:02:46;;;;;;;1.58;0.75;;;;;;;;;;6214952;23;20501;-54
2024/04/02 00:05:14;;;;;;;0.70;0.70;;;;;;;;;;6214622;23;20252;-49
2024/04/02 00:07:40;;;;;;;0.82;0.82;;;;;;;;;;6214790;23;20181;-52
2024/04/02 00:10:08;;;;;;;0.80;0.80;;;;;;;;;;6214551;23;20178;-52
2024/04/02 00:12:35;;;;;;;0.73;0.73;;;;;;;;;;6215194;23;20272;-50
2024/04/02 00:15:05;;;;;;;0.60;0.60;;;;;;;;;;6214014;23;20272;-49
2024/04/02 00:17:32;;;;;;;0.70;0.70;;;;;;;;;;6215401;23;20228;-50
2024/04/02 00:20:04;;;;;;;0.85;0.85;;;;;;;;;;6214471;23;20177;-49
2024/04/02 00:22:30;;;;;;;0.90;0.90;;;;;;;;;;6215488;23;20655;-54
2024/04/02 00:24:58;;;;;;;0.60;0.60;;;;;;;;;;6215888;23;20178;-52
2024/04/02 00:27:27;;;;;;;0.70;0.60;;;;;;;;;;6215739;23;20180;-52
2024/04/02 00:29:54;;;;;;;0.85;0.80;;;;;;;;;;6216438;23;20497;-51
2024/04/02 00:32:22;;;;;;;0.70;0.70;;;;;;;;;;6215524;23;20194;-54
2024/04/02 00:34:50;;;;;;;1.08;1.08;;;;;;;;;;6215295;23;20284;-53
2024/04/02 00:37:17;;;;;;;0.70;0.70;;;;;;;;;;6215663;23;20181;-51
2024/04/02 00:39:46;;;;;;;1.10;0.77;;;;;;;;;;6215296;23;20208;-53
2024/04/02 00:42:12;;;;;;;0.60;0.60;;;;;;;;;;6216307;23;20200;-54
2024/04/02 00:44:40;;;;;;;0.70;0.70;;;;;;;;;;6215731;23;20185;-54
2024/04/02 00:47:09;;;;;;;0.90;0.90;;;;;;;;;;6215938;23;20757;-50
2024/04/02 00:49:37;;;;;;;0.63;0.60;;;;;;;;;;6215811;23;20231;-50
2024/04/02 00:52:05;;;;;;;0.75;0.75;;;;;;;;;;6216332;23;20205;-52
2024/04/02 00:54:35;;;;;;;0.82;0.82;;;;;;;;;;6216077;23;20198;-51
2024/04/02 00:57:02;;;;;;;0.75;0.70;;;;;;;;;;6216319;23;20504;-50
2024/04/02 00:59:30;;;;;;;1.23;1.10;;;;;;;;;;6215484;23;20522;-49
2024/04/02 01:01:56;;;;;;;0.70;0.70;;;;;;;;;;6216463;23;20662;-53
2024/04/02 01:04:24;;;;;;;0.70;0.70;;;;;;;;;;6215868;23;20170;-54
2024/04/02 01:06:51;;;;;;;0.80;0.68;;;;;;;;;;6216461;23;20257;-53
2024/04/02 01:09:20;;;;;;;0.80;0.80;;;;;;;;;;6215645;23;20182;-51
2024/04/02 01:11:49;;;;;;;0.90;0.90;;;;;;;;;;6216433;23;20200;-51
2024/04/02 01:14:16;;;;;;;1.33;0.90;;;;;;;;;;6215886;23;20208;-54
2024/04/02 01:16:44;;;;;;;0.75;0.75;;;;;;;;;;6215639;23;20174;-51
2024/04/02 01:19:12;;;;;;;1.10;1.10;;;;;;;;;;6216346;23;20514;-50
2024/04/02 01:21:39;;;;;;;0.73;0.73;;;;;;;;;;6216018;23;20193;-50
2024/04/02 01:24:08;;;;;;;0.80;0.80;;;;;;;;;;6215828;23;20232;-52
2024/04/02 01:26:36;;;;;;;0.95;0.95;;;;;;;;;;6215748;23;20337;-51
2024/04/02 01:29:03;;;;;;;0.90;0.90;;;;;;;;;;6215314;23;20646;-52
2024/04/02 01:31:30;;;;;;;0.63;0.63;;;;;;;;;;6215565;23;20570;-53
2024/04/02 01:33:58;;;;;;;0.80;0.80;;;;;;;;;;6215819;23;20635;-50
2024/04/02 01:36:25;;;;;;;0.85;0.60;;;;;;;;;;6216251;23;20232;-54
2024/04/02 01:38:52;;;;;;;1.13;1.10;;;;;;;;;;6216459;23;20267;-49
2024/04/02 01:41:19;;;;;;;0.82;0.82;;;;;;;;;;6215799;23;20250;-50
2024/04/02 01:43:48;;;;;;;0.90;0.85;;;;;;;;;;6216184;23;20177;-52
2024/04/02 01:46:15;;;;;;;0.98;0.98;;;;;;;;;;6215946;23;20197;-52
2024/04/02 01:48:42;;;;;;;1.35;0.88;;;;;;;;;;6216118;23;20555;-52
2024/04/02 01:51:09;;;;;;;0.80;0.80;;;;;;;;;;6215268;23;20344;-54
2024/04/02 01:53:36;;;;;;;0.70;0.70;;;;;;;;;;6215265;23;20177;-49
2024/04/02 01:56:04;;;;;;;0.82;0.82;;;;;;;;;;6215871;23;20194;-50
2024/04/02 01:58:31;;;;;;;1.20;0.95;;;;;;;;;;6215220;23;20516;-50
2024/04/02 02:00:59;;;;;;;0.63;0.63;;;;;;;;;;6215332;23;20280;-53
2024/04/02 02:03:27;;;;;;;0.77;0.77;;;;;;;;;;6214978;23;20174;-53
2024/04/02 02:05:53;;;;;;;2.83;1.98;;;;;;;;;;6215582;23;20176;-50
2024/04/02 02:08:21;;;;;;;0.80;0.80;;;;;;;;;;6215830;23;20223;-51
2024/04/02 02:10:47;;;;;;;0.80;0.80;;;;;;;;;;6215595;23;20216;-51
2024/04/02 02:13:14;;;;;;;0.68;0.68;;;;;;;;;;6214381;23;20213;-52
2024/04/02 02:15:41;;;;;;;0.70;0.70;;;;;;;;;;6215988;23;20527;-52
2024/04/02 02:18:10;;;;;;;1.88;0.70;;;;;;;;;;6215380;23;20517;-51
2024/04/02 02:20:36;;;;;;;1.92;0.77;;;;;;;;;;6215498;23;20199;-52
2024/04/02 02:23:04;;;;;;;0.73;0.73;;;;;;;;;;6214874;23;20180;-50
2024/04/02 02:25:30;;;;;;;2.08;0.60;;;;;;;;;;6214484;23;20170;-54
2024/04/02 02:27:57;;;;;;;2.65;1.10;;;;;;;;;;6213523;23;20516;-52
2024/04/02 02:30:24;;;;;;;1.90;1.67;;;;;;;;;;6213823;23;20174;-51
2024/04/02 02:32:51;;;;;;;0.80;0.80;;;;;;;;;;6213466;23;20174;-51
2024/04/02 02:35:19;;;;;;;1.05;0.82;;;;;;;;;;6213267;23;20197;-51
2024/04/02 02:37:46;;;;;;;0.80;0.80;;;;;;;;;;6213032;23;20174;-51
2024/04/02 02:40:13;;;;;;;2.08;1.05;;;;;;;;;;6213414;23;20257;-54
2024/04/02 02:42:40;;;;;;;0.60;0.60;;;;;;;;;;6212984;23;20185;-52
2024/04/02 02:45:07;;;;;;;0.75;0.75;;;;;;;;;;6213461;23;20595;-55
2024/04/02 02:47:35;;;;;;;0.90;0.77;;;;;;;;;;6213619;23;20174;-50
2024/04/02 02:50:03;;;;;;;0.80;0.80;;;;;;;;;;6213725;23;20173;-52
2024/04/02 02:52:32;;;;;;;0.73;0.73;;;;;;;;;;6214032;23;20204;-55
2024/04/02 02:54:58;;;;;;;0.85;0.85;;;;;;;;;;6213125;23;20208;-55
2024/04/02 02:57:26;;;;;;;0.65;0.63;;;;;;;;;;6212878;23;20177;-52
2024/04/02 02:59:52;;;;;;;0.60;0.60;;;;;;;;;;6213055;23;20174;-55
2024/04/02 03:02:20;;;;;;;1.05;0.75;;;;;;;;;;6212740;23;20197;-53
2024/04/02 03:04:48;;;;;;;0.98;0.90;;;;;;;;;;6213427;23;20717;-53
2024/04/02 03:07:16;;;;;;;0.70;0.70;;;;;;;;;;6213952;23;20182;-55
2024/04/02 03:09:44;;;;;;;0.75;0.75;;;;;;;;;;6213782;23;20184;-52
2024/04/02 03:12:12;;;;;;;0.88;0.50;;;;;;;;;;6213928;23;20197;-55
2024/04/02 03:14:38;;;;;;;0.95;0.90;;;;;;;;;;6213214;23;20177;-55
2024/04/02 03:17:06;;;;;;;0.50;0.50;;;;;;;;;;6213126;23;20198;-55
2024/04/02 03:19:32;;;;;;;0.68;0.68;;;;;;;;;;6213836;23;20184;-56
2024/04/02 03:22:00;;;;;;;0.60;0.60;;;;;;;;;;6212898;23;20513;-51
2024/04/02 03:24:26;;;;;;;0.77;0.77;;;;;;;;;;6213457;23;20509;-51
2024/04/02 03:26:55;;;;;;;1.50;0.80;;;;;;;;;;6213236;23;20174;-54
2024/04/02 03:29:21;;;;;;;0.93;0.60;;;;;;;;;;6212917;23;20257;-54
2024/04/02 03:31:49;;;;;;;0.70;0.70;;;;;;;;;;6213063;23;20729;-54
2024/04/02 03:34:15;;;;;;;0.57;0.57;;;;;;;;;;6213137;23;20180;-52
2024/04/02 03:36:42;;;;;;;0.68;0.68;;;;;;;;;;6212669;23;20974;-54
2024/04/02 03:39:10;;;;;;;0.73;0.70;;;;;;;;;;6213537;23;20655;-53
2024/04/02 03:41:37;;;;;;;1.00;0.90;;;;;;;;;;6213137;23;20281;-50
2024/04/02 03:44:06;;;;;;;0.50;0.50;;;;;;;;;;6213113;23;20180;-53
2024/04/02 03:46:34;;;;;;;1.75;1.10;;;;;;;;;;6213539;23;20553;-52
2024/04/02 03:49:00;;;;;;;0.93;0.73;;;;;;;;;;6213252;23;20195;-50
2024/04/02 03:51:28;;;;;;;1.25;0.93;;;;;;;;;;6212585;23;20194;-51
2024/04/02 03:53:54;;;;;;;1.25;0.80;;;;;;;;;;6213284;23;20200;-53
2024/04/02 03:56:22;;;;;;;0.63;0.63;;;;;;;;;;6213585;23;20201;-53
2024/04/02 03:58:48;;;;;;;0.88;0.82;;;;;;;;;;6212963;23;20174;-55
2024/04/02 04:01:19;;;;;;;1.45;0.90;;;;;;;;;;6213047;23;20198;-54
2024/04/02 04:03:45;;;;;;;1.23;0.80;;;;;;;;;;6213295;23;20178;-50
2024/04/02 04:06:13;;;;;;;0.70;0.70;;;;;;;;;;6213127;23;20245;-54
2024/04/02 04:08:40;;;;;;;0.82;0.70;;;;;;;;;;6213269;23;20181;-52
2024/04/02 04:11:08;;;;;;;0.73;0.73;;;;;;;;;;6213079;23;20194;-55
2024/04/02 04:13:34;;;;;;;0.73;0.73;;;;;;;;;;6214234;23;20186;-55
2024/04/02 04:16:04;;;;;;;0.80;0.80;;;;;;;;;;6214617;23;20283;-52
2024/04/02 04:18:32;;;;;;;0.82;0.80;;;;;;;;;;6215150;23;20243;-50
2024/04/02 04:21:01;;;;;;;0.80;0.80;;;;;;;;;;6214833;23;20686;-54
2024/04/02 04:23:28;;;;;;;0.70;0.63;;;;;;;;;;6215185;23;20248;-52
2024/04/02 04:25:57;;;;;;;1.00;0.73;;;;;;;;;;6214493;23;20169;-52
2024/04/02 04:28:24;;;;;;;1.60;1.50;;;;;;;;;;6215063;23;20177;-52
2024/04/02 04:30:55;;;;;;;0.90;0.90;;;;;;;;;;6215004;23;20190;-53
2024/04/02 04:33:22;;;;;;;0.75;0.73;;;;;;;;;;6215118;23;20508;-51
2024/04/02 04:35:51;;;;;;;1.08;0.95;;;;;;;;;;6214682;23;20726;-51
2024/04/02 04:38:19;;;;;;;0.85;0.85;;;;;;;;;;6215535;23;20174;-53
2024/04/02 04:40:47;;;;;;;0.90;0.90;;;;;;;;;;6214737;23;20194;-54
2024/04/02 04:43:16;;;;;;;0.90;0.90;;;;;;;;;;6215386;23;20253;-53
2024/04/02 04:45:52;;;;;;;0.70;0.70;;;;;;;;;;6214922;23;20178;-55
2024/04/02 04:48:18;;;;;;;0.90;0.90;;;;;;;;;;6215019;23;20164;-51
2024/04/02 04:51:01;;;;;;;0.80;0.80;;;;;;;;;;6214324;23;20663;-50
2024/04/02 04:53:28;;;;;;;0.95;0.90;;;;;;;;;;6214751;23;20234;-54
2024/04/02 04:56:00;;;;;;;0.90;0.90;;;;;;;;;;6214765;23;20173;-55
2024/04/02 04:58:26;;;;;;;1.00;1.00;;;;;;;;;;6215168;23;20789;-51
2024/04/02 05:00:54;;;;;;;1.45;1.23;;;;;;;;;;6214159;23;20566;-51
2024/04/02 05:03:21;;;;;;;1.20;1.10;;;;;;;;;;6214902;23;20196;-50
2024/04/02 05:05:48;;;;;;;0.93;0.90;;;;;;;;;;6214367;23;20496;-52
2024/04/02 05:08:25;;;;;;;1.48;0.90;;;;;;;;;;6214595;23;20174;-52
2024/04/02 05:10:54;;;;;;;0.93;0.90;;;;;;;;;;6215129;23;20201;-53
2024/04/02 05:13:21;;;;;;;1.13;1.02;;;;;;;;;;6214915;23;20197;-55
2024/04/02 05:15:48;;;;;;;1.30;0.95;;;;;;;;;;6214203;23;20173;-50
2024/04/02 05:18:15;;;;;;;1.52;0.80;;;;;;;;;;6214044;23;20205;-50
2024/04/02 05:20:42;;;;;;;0.90;0.77;;;;;;;;;;6214167;23;20252;-50
2024/04/02 05:23:09;;;;;;;1.05;0.82;;;;;;;;;;6213907;23;20174;-55
2024/04/02 05:25:37;;;;;;;1.67;1.00;;;;;;;;;;6213622;23;20174;-55
2024/04/02 05:28:05;;;;;;;3.40;1.25;;;;;;;;;;6214379;23;20193;-53
2024/04/02 05:30:33;;;;;;;1.10;1.00;;;;;;;;;;6214435;23;20236;-53
2024/04/02 05:32:59;;;;;;;1.23;1.13;;;;;;;;;;6214330;23;20178;-53
2024/04/02 05:35:26;;;;;;;0.80;0.80;;;;;;;;;;6214431;23;20509;-52
2024/04/02 05:37:53;;;;;;;1.30;1.20;;;;;;;;;;6214132;23;20204;-50
2024/04/02 05:40:22;;;;;;;1.48;1.10;;;;;;;;;;6213975;23;20257;-51
2024/04/02 05:42:49;;;;;;;1.20;1.10;;;;;;;;;;6213970;23;20248;-55
2024/04/02 05:45:17;;;;;;;0.90;0.80;;;;;;;;;;6214016;23;20197;-52
2024/04/02 05:47:44;;;;;;;0.85;0.82;;;;;;;;;;6214374;23;20205;-52
2024/04/02 05:50:15;;;;;;;0.80;0.80;;;;;;;;;;6213944;23;20205;-51
2024/04/02 05:52:41;;;;;;;1.25;0.80;;;;;;;;;;6214560;23;20204;-53
2024/04/02 05:55:08;;;;;;;1.15;1.15;;;;;;;;;;6213683;23;20253;-55
2024/04/02 05:57:35;;;;;;;0.80;0.80;;;;;;;;;;6214234;23;20201;-52
2024/04/02 06:00:06;;;;;;;1.13;1.05;;;;;;;;;;6214255;23;20174;-55
2024/04/02 06:02:33;;;;;;;1.48;1.02;;;;;;;;;;6214604;23;20200;-54
2024/04/02 06:05:00;;;;;;;0.80;0.80;;;;;;;;;;6214020;23;20174;-54
2024/04/02 06:07:27;;;;;;;1.25;0.80;;;;;;;;;;6213883;23;20169;-54
2024/04/02 06:09:54;;;;;;;1.23;0.95;;;;;;;;;;6213440;23;20209;-51
2024/04/02 06:12:20;;;;;;;0.68;0.68;;;;;;;;;;6214184;23;20194;-50
2024/04/02 06:14:49;;;;;;;0.70;0.70;;;;;;;;;;6213264;23;20846;-51
2024/04/02 06:17:17;;;;;;;2.00;1.00;;;;;;;;;;6213567;23;20194;-53
2024/04/02 06:19:44;;;;;;;0.68;0.68;;;;;;;;;;6214481;23;20266;-53
2024/04/02 06:22:10;;;;;;;0.80;0.80;;;;;;;;;;6213839;23;20194;-54
2024/04/02 06:24:38;;;;;;;2.13;0.95;;;;;;;;;;6213642;23;20671;-54
2024/04/02 06:27:05;;;;;;;0.75;0.75;;;;;;;;;;6213872;23;20176;-50
2024/04/02 06:29:34;;;;;;;0.80;0.80;;;;;;;;;;6214089;23;20251;-55
2024/04/02 06:32:01;;;;;;;0.60;0.60;;;;;;;;;;6214168;23;20244;-51
2024/04/02 06:34:29;;;;;;;0.90;0.90;;;;;;;;;;6213724;23;20177;-50
2024/04/02 06:36:56;;;;;;;1.73;1.23;;;;;;;;;;6213460;23;20204;-51
2024/04/02 06:39:24;;;;;;;0.85;0.80;;;;;;;;;;6213625;23;20174;-54
2024/04/02 06:41:50;;;;;;;0.73;0.73;;;;;;;;;;6213257;23;20197;-53
2024/04/02 06:44:18;;;;;;;0.88;0.88;;;;;;;;;;6213465;23;20216;-53
2024/04/02 06:46:44;;;;;;;2.13;1.55;;;;;;;;;;6213818;23;20189;-52
2024/04/02 06:49:12;;;;;;;1.05;0.70;;;;;;;;;;6213974;23;20180;-51
2024/04/02 06:51:39;;;;;;;0.90;0.80;;;;;;;;;;6215540;23;20276;-50
2024/04/02 06:54:07;;;;;;;0.85;0.80;;;;;;;;;;6214672;23;20173;-52
2024/04/02 06:56:33;;;;;;;0.98;0.80;;;;;;;;;;6215412;23;20177;-49
2024/04/02 06:59:01;;;;;;;1.58;0.75;;;;;;;;;;6214823;23;20524;-52
2024/04/02 07:01:28;;;;;;;1.23;1.15;;;;;;;;;;6215058;23;20197;-53
2024/04/02 07:03:55;;;;;;;0.80;0.80;;;;;;;;;;6214659;23;20182;-54
2024/04/02 07:06:22;;;;;;;1.17;0.75;;;;;;;;;;6215549;23;20181;-49
2024/04/02 07:08:50;;;;;;;0.60;0.60;;;;;;;;;;6214854;23;20653;-53
2024/04/02 07:11:17;;;;;;;1.40;0.68;;;;;;;;;;6214956;23;20272;-50
2024/04/02 07:13:44;;;;;;;1.85;0.80;;;;;;;;;;6214353;23;20181;-52
2024/04/02 07:16:11;;;;;;;0.95;0.73;;;;;;;;;;6215014;23;20174;-51
2024/04/02 07:18:38;;;;;;;0.60;0.60;;;;;;;;;;6214464;23;20213;-52
2024/04/02 07:21:07;;;;;;;0.63;0.63;;;;;;;;;;6214931;23;20193;-51
2024/04/02 07:23:35;;;;;;;0.85;0.70;;;;;;;;;;6215282;23;20173;-50
2024/04/02 07:26:04;;;;;;;6.22;1.38;;;;;;;;;;6215944;23;20561;-50
2024/04/02 07:28:32;;;;;;;1.25;0.88;;;;;;;;;;6215336;23;20202;-53
2024/04/02 07:31:00;;;;;;;1.50;0.73;;;;;;;;;;6214838;23;20194;-50
2024/04/02 07:33:27;;;;;;;0.82;0.80;;;;;;;;;;6215217;23;20518;-53
2024/04/02 07:35:56;;;;;;;0.40;0.40;;;;;;;;;;6215003;23;20184;-50
2024/04/02 07:38:23;;;;;;;1.15;0.80;;;;;;;;;;6215138;23;20202;-52
2024/04/02 07:40:50;;;;;;;1.85;0.90;;;;;;;;;;6215040;23;20197;-55
2024/04/02 07:43:18;;;;;;;0.75;0.75;;;;;;;;;;6214873;23;20691;-51
2024/04/02 07:45:52;;;;;;;0.70;0.70;;;;;;;;;;6215278;23;20236;-50
2024/04/02 07:48:20;;;;;;;1.02;0.70;;;;;;;;;;6216200;23;20180;-51
2024/04/02 07:50:49;;;;;;;1.08;0.82;;;;;;;;;;6217512;23;20245;-52
2024/04/02 07:53:15;;;;;;;0.70;0.70;;;;;;;;;;6217065;23;20184;-52
2024/04/02 07:55:43;;;;;;;1.17;0.80;;;;;;;;;;6216757;23;20180;-53
2024/04/02 07:58:10;;;;;;;0.77;0.77;;;;;;;;;;6216357;23;20614;-55
2024/04/02 08:00:40;;;;;;;1.30;0.90;;;;;;;;;;6217065;23;20530;-52
2024/04/02 08:03:08;;;;;;;1.13;0.88;;;;;;;;;;6216088;23;20643;-51
2024/04/02 08:05:34;;;;;;;0.60;0.60;;;;;;;;;;6216744;23;20173;-51
2024/04/02 08:08:03;;;;;;;0.63;0.63;;;;;;;;;;6215580;23;20178;-54
2024/04/02 08:10:29;;;;;;;0.80;0.80;;;;;;;;;;6217224;23;20517;-52
2024/04/02 08:12:58;;;;;;;0.70;0.70;;;;;;;;;;6216096;23;20177;-50
2024/04/02 08:15:25;;;;;;;0.75;0.75;;;;;;;;;;6217374;23;20182;-52
2024/04/02 08:17:53;;;;;;;0.70;0.68;;;;;;;;;;6215195;23;20205;-51
2024/04/02 08:20:20;;;;;;;1.30;0.95;;;;;;;;;;6215157;23;20180;-49
2024/04/02 08:22:48;;;;;;;1.70;0.70;;;;;;;;;;6215670;23;20231;-50
2024/04/02 08:25:15;;;;;;;0.80;0.80;;;;;;;;;;6215736;23;20239;-48
2024/04/02 08:27:42;;;;;;;0.65;0.65;;;;;;;;;;6214573;23;20564;-49
2024/04/02 08:30:10;;;;;;;0.80;0.80;;;;;;;;;;6214565;23;20174;-51
2024/04/02 08:32:40;;;;;;;0.73;0.73;;;;;;;;;;6214660;23;20194;-50
2024/04/02 08:35:09;;;;;;;2.35;0.50;;;;;;;;;;6214602;23;20174;-51
2024/04/02 08:37:37;;;;;;;0.50;0.47;;;;;;;;;;6214670;23;20173;-51
2024/04/02 08:40:05;;;;;;;1.38;1.13;;;;;;;;;;6214903;23;20257;-48
2024/04/02 08:42:32;;;;;;;1.15;0.65;;;;;;;;;;6214575;23;20198;-50
2024/04/02 08:45:00;;;;;;;1.40;1.00;;;;;;;;;;6214873;23;20174;-50
2024/04/02 08:47:28;;;;;;;1.70;0.90;;;;;;;;;;6214618;23;20178;-48
2024/04/02 08:49:55;;;;;;;0.63;0.63;;;;;;;;;;6214443;23;20170;-50
2024/04/02 08:52:24;;;;;;;0.70;0.70;;;;;;;;;;6214390;23;20194;-54
2024/04/02 08:54:51;;;;;;;0.40;0.40;;;;;;;;;;6214860;23;20180;-52
2024/04/02 08:57:19;;;;;;;0.70;0.70;;;;;;;;;;6215245;23;20261;-50
2024/04/02 08:59:47;;;;;;;0.70;0.68;;;;;;;;;;6214379;23;20201;-50
2024/04/02 09:02:14;;;;;;;0.68;0.60;;;;;;;;;;6214606;23;20507;-48
2024/04/02 09:04:41;;;;;;;0.50;0.50;;;;;;;;;;6215171;23;20180;-51
2024/04/02 09:07:08;;;;;;;0.40;0.40;;;;;;;;;;6214812;23;20202;-53
2024/04/02 09:09:36;;;;;;;1.20;0.65;;;;;;;;;;6214165;23;20213;-49
2024/04/02 09:12:06;;;;;;;0.63;0.63;;;;;;;;;;6213871;23;20701;-50
2024/04/02 09:14:35;;;;;;;0.60;0.60;;;;;;;;;;6214388;23;20224;-51
2024/04/02 09:17:04;;;;;;;1.00;1.00;;;;;;;;;;6215026;23;20177;-51
2024/04/02 09:19:30;;;;;;;0.65;0.65;;;;;;;;;;6214840;23;20554;-51
2024/04/02 09:21:57;;;;;;;1.13;0.73;;;;;;;;;;6214243;23;20350;-47
2024/04/02 09:24:24;;;;;;;0.70;0.70;;;;;;;;;;6214774;23;20184;-51
2024/04/02 09:26:53;;;;;;;1.30;0.80;;;;;;;;;;6215696;23;20178;-48
2024/04/02 09:29:20;;;;;;;1.08;0.80;;;;;;;;;;6214692;23;20546;-46
2024/04/02 09:31:48;;;;;;;0.68;0.60;;;;;;;;;;6214667;23;20281;-48
2024/04/02 09:34:21;;;;;;;1.65;0.98;;;;;;;;;;6215024;23;20174;-48
2024/04/02 09:36:49;;;;;;;0.73;0.73;;;;;;;;;;6214896;23;20662;-48
2024/04/02 09:39:16;;;;;;;0.75;0.70;;;;;;;;;;6214688;23;20225;-49
2024/04/02 09:41:46;;;;;;;1.05;0.70;;;;;;;;;;6213118;23;20194;-49
2024/04/02 09:44:16;;;;;;;2.67;0.88;;;;;;;;;;6214219;23;20257;-50
2024/04/02 09:46:45;;;;;;;1.40;0.93;;;;;;;;;;6214303;23;20174;-54
2024/04/02 09:49:13;;;;;;;2.00;0.90;;;;;;;;;;6213965;23;20201;-50
2024/04/02 09:51:41;;;;;;;3.85;1.45;;;;;;;;;;6214096;23;20256;-52
2024/04/02 09:54:08;;;;;;;1.08;0.90;;;;;;;;;;6213916;23;20233;-50
2024/04/02 09:56:37;;;;;;;0.80;0.80;;;;;;;;;;6214435;23;20193;-53
2024/04/02 09:59:05;;;;;;;1.25;0.98;;;;;;;;;;6214749;23;20689;-51
2024/04/02 10:01:37;;;;;;;1.02;0.90;;;;;;;;;;6213760;23;20230;-50
2024/04/02 10:04:05;;;;;;;2.83;1.02;;;;;;;;;;6214639;23;20237;-50
2024/04/02 10:06:35;;;;;;;2.20;1.40;;;;;;;;;;6214034;23;20570;-50
2024/04/02 10:09:05;;;;;;;3.30;1.75;;;;;;;;;;6214229;23;20177;-52
2024/04/02 10:11:37;;;;;;;4.22;1.40;;;;;;;;;;6213995;23;20204;-50
2024/04/02 10:14:06;;;;;;;1.35;0.90;;;;;;;;;;6213370;23;20190;-51
2024/04/02 10:16:39;;;;;;;2.03;1.00;;;;;;;;;;6214181;23;20216;-49
2024/04/02 10:19:10;;;;;;;1.48;1.23;;;;;;;;;;6213568;23;20185;-49
2024/04/02 10:21:37;;;;;;;1.33;0.73;;;;;;;;;;6214098;23;20198;-51
2024/04/02 10:24:05;;;;;;;1.40;0.88;;;;;;;;;;6214025;23;20174;-52
2024/04/02 10:26:33;;;;;;;1.15;0.88;;;;;;;;;;6213938;23;20216;-51
2024/04/02 10:28:59;;;;;;;1.35;0.95;;;;;;;;;;6213717;23;20174;-51
2024/04/02 10:31:41;;;;;;;2.88;1.23;;;;;;;;;;6213050;23;20194;-51
2024/04/02 10:34:09;;;;;;;4.55;0.98;;;;;;;;;;6214128;23;20158;-51
2024/04/02 10:36:37;;;;;;;5.53;2.13;;;;;;;;;;6213636;23;20686;-50
2024/04/02 10:39:06;;;;;;;1.38;0.90;;;;;;;;;;6214140;23;20198;-54
2024/04/02 10:41:34;;;;;;;1.38;1.13;;;;;;;;;;6214131;23;20194;-50
2024/04/02 10:44:01;;;;;;;1.73;0.93;;;;;;;;;;6213547;23;20649;-50
2024/04/02 10:46:29;;;;;;;2.05;1.00;;;;;;;;;;6213383;23;20249;-52
2024/04/02 10:49:02;;;;;;;1.80;1.27;;;;;;;;;;6213959;23;20178;-52
2024/04/02 10:51:30;;;;;;;1.08;0.85;;;;;;;;;;6214189;23;20276;-52
2024/04/02 10:53:59;;;;;;;2.83;0.93;;;;;;;;;;6214216;23;20181;-50
2024/04/02 10:56:26;;;;;;;1.77;1.00;;;;;;;;;;6213989;23;20173;-48
2024/04/02 10:58:54;;;;;;;0.50;0.50;;;;;;;;;;6213339;23;20205;-51
2024/04/02 11:01:22;;;;;;;3.67;1.13;;;;;;;;;;6213105;23;20733;-49
2024/04/02 11:03:52;;;;;;;0.95;0.82;;;;;;;;;;6213352;23;20173;-51
2024/04/02 11:06:21;;;;;;;1.83;1.08;;;;;;;;;;6214227;23;20162;-50
2024/04/02 11:08:49;;;;;;;3.00;1.20;;;;;;;;;;6214004;23;20173;-50
2024/04/02 11:11:20;;;;;;;2.47;1.10;;;;;;;;;;6213965;23;20200;-48
2024/04/02 11:13:48;;;;;;;0.85;0.85;;;;;;;;;;6213165;23;20317;-51
2024/04/02 11:16:16;;;;;;;1.45;0.90;;;;;;;;;;6213702;23;20177;-49
2024/04/02 11:18:44;;;;;;;1.08;0.82;;;;;;;;;;6213690;23;20232;-51
2024/04/02 11:21:16;;;;;;;0.88;0.73;;;;;;;;;;6213332;23;20205;-50
2024/04/02 11:26:30;;;;;;;1.63;0.90;;;;;;;;;;6214162;23;20242;-49
2024/04/02 11:29:08;;;;;;;3.08;1.27;;;;;;;;;;6213609;23;20568;-50
2024/04/02 11:31:34;;;;;;;0.88;0.65;;;;;;;;;;6213776;23;20582;-50
2024/04/02 11:34:03;;;;;;;1.88;0.63;;;;;;;;;;6213458;23;20174;-51
2024/04/02 11:36:30;;;;;;;2.22;0.98;;;;;;;;;;6213567;23;20185;-51
2024/04/02 11:38:59;;;;;;;0.70;0.70;;;;;;;;;;6213468;23;20242;-52
2024/04/02 11:41:27;;;;;;;1.40;1.00;;;;;;;;;;6213577;23;20280;-52
2024/04/02 11:43:54;;;;;;;0.85;0.77;;;;;;;;;;6213625;23;20174;-49
2024/04/02 11:46:22;;;;;;;1.17;0.90;;;;;;;;;;6213408;23;20228;-48
2024/04/02 11:48:49;;;;;;;1.67;0.90;;;;;;;;;;6213035;23;20173;-49
2024/04/02 11:51:17;;;;;;;1.73;1.08;;;;;;;;;;6213072;23;20200;-51
2024/04/02 11:53:43;;;;;;;0.80;0.80;;;;;;;;;;6213235;23;20649;-49
2024/04/02 11:56:12;;;;;;;1.45;0.90;;;;;;;;;;6212624;23;20181;-50
2024/04/02 12:01:24;;;;;;;0.95;0.65;;;;;;;;;;6213457;23;20247;-51
2024/04/02 12:03:52;;;;;;;2.35;1.10;;;;;;;;;;6213666;23;20212;-53
2024/04/02 12:06:19;;;;;;;1.63;0.90;;;;;;;;;;6213339;23;20174;-52
2024/04/02 12:08:45;;;;;;;0.57;0.55;;;;;;;;;;6213065;23;20174;-51
2024/04/02 12:11:14;;;;;;;1.55;0.95;;;;;;;;;;6213027;23;20198;-51
2024/04/02 12:13:41;;;;;;;0.68;0.60;;;;;;;;;;6212478;23;20188;-50
2024/04/02 12:16:08;;;;;;;1.42;0.80;;;;;;;;;;6212953;23;20174;-49
2024/04/02 12:18:36;;;;;;;1.27;1.00;;;;;;;;;;6213490;23;20184;-52
2024/04/02 12:21:04;;;;;;;0.60;0.60;;;;;;;;;;6213329;23;20197;-49
2024/04/02 12:23:30;;;;;;;1.23;0.90;;;;;;;;;;6213063;23;20184;-49
2024/04/02 12:25:59;;;;;;;1.00;0.90;;;;;;;;;;6212856;23;20177;-51
2024/04/02 12:28:27;;;;;;;0.70;0.70;;;;;;;;;;6213411;23;20513;-53
2024/04/02 12:30:58;;;;;;;0.90;0.77;;;;;;;;;;6213263;23;20273;-49
2024/04/02 12:33:25;;;;;;;1.02;0.90;;;;;;;;;;6212769;23;20236;-50
2024/04/02 12:35:56;;;;;;;1.15;0.68;;;;;;;;;;6215091;23;20253;-53
2024/04/02 12:38:22;;;;;;;0.80;0.80;;;;;;;;;;6215187;23;20735;-53
2024/04/02 12:40:50;;;;;;;1.85;0.70;;;;;;;;;;6215120;23;20547;-54
2024/04/02 12:43:16;;;;;;;1.55;0.85;;;;;;;;;;6215228;23;20690;-53
2024/04/02 12:45:52;;;;;;;1.38;0.70;;;;;;;;;;6214753;23;20628;-54
2024/04/02 12:48:18;;;;;;;1.02;0.80;;;;;;;;;;6214818;23;20173;-54
2024/04/02 12:50:52;;;;;;;0.68;0.68;;;;;;;;;;6214176;23;20277;-51
2024/04/02 12:53:20;;;;;;;3.53;1.58;;;;;;;;;;6215362;23;20162;-49
2024/04/02 12:55:48;;;;;;;0.90;0.80;;;;;;;;;;6215152;23;20181;-54
2024/04/02 12:58:14;;;;;;;0.60;0.60;;;;;;;;;;6214712;23;20256;-52
2024/04/02 13:00:42;;;;;;;0.98;0.60;;;;;;;;;;6214815;23;20694;-49
2024/04/02 13:03:11;;;;;;;1.27;0.77;;;;;;;;;;6214601;23;20174;-49
2024/04/02 13:05:39;;;;;;;1.00;0.80;;;;;;;;;;6215121;23;20281;-50
2024/04/02 13:08:06;;;;;;;1.40;0.93;;;;;;;;;;6214869;23;20181;-50
2024/04/02 13:10:34;;;;;;;1.00;1.00;;;;;;;;;;6214423;23;20174;-51
2024/04/02 13:13:01;;;;;;;1.23;0.50;;;;;;;;;;6214648;23;20212;-55
2024/04/02 13:15:32;;;;;;;0.70;0.70;;;;;;;;;;6214318;23;20197;-53
2024/04/02 13:17:59;;;;;;;2.55;0.70;;;;;;;;;;6214728;23;20166;-52
2024/04/02 13:20:29;;;;;;;0.60;0.60;;;;;;;;;;6213892;23;20201;-52
2024/04/02 13:22:56;;;;;;;0.65;0.57;;;;;;;;;;6214639;23;20178;-56
2024/04/02 13:25:25;;;;;;;0.40;0.40;;;;;;;;;;6214924;23;20181;-50
2024/04/02 13:27:52;;;;;;;1.52;0.52;;;;;;;;;;6214736;23;20178;-52
2024/04/02 13:30:21;;;;;;;0.82;0.52;;;;;;;;;;6214390;23;20646;-53
2024/04/02 13:32:48;;;;;;;1.83;1.00;;;;;;;;;;6214681;23;20173;-52
2024/04/02 13:35:17;;;;;;;1.85;0.70;;;;;;;;;;6214405;23;20177;-52
2024/04/02 13:37:45;;;;;;;0.77;0.70;;;;;;;;;;6214944;23;20174;-55
2024/04/02 13:40:13;;;;;;;0.73;0.60;;;;;;;;;;6213780;23;20181;-50
2024/04/02 13:42:40;;;;;;;0.52;0.52;;;;;;;;;;6214186;23;20256;-53
2024/04/02 13:45:10;;;;;;;1.02;1.00;;;;;;;;;;6214100;23;20232;-51
2024/04/02 13:47:37;;;;;;;0.70;0.70;;;;;;;;;;6214736;23;20224;-51
2024/04/02 13:50:05;;;;;;;0.60;0.60;;;;;;;;;;6214002;23;20666;-52
2024/04/02 13:52:33;;;;;;;1.35;0.60;;;;;;;;;;6214369;23;20544;-52
2024/04/02 13:55:02;;;;;;;0.95;0.45;;;;;;;;;;6214178;23;20525;-55
2024/04/02 13:57:29;;;;;;;0.77;0.70;;;;;;;;;;6213680;23;20623;-52
2024/04/02 13:59:57;;;;;;;1.75;0.50;;;;;;;;;;6213565;23;20658;-52
2024/04/02 14:02:24;;;;;;;0.85;0.60;;;;;;;;;;6213980;23;20259;-55
2024/04/02 14:04:51;;;;;;;0.43;0.40;;;;;;;;;;6213817;23;20180;-54
2024/04/02 14:07:20;;;;;;;1.63;0.70;;;;;;;;;;6214293;23;20229;-52
2024/04/02 14:09:47;;;;;;;0.50;0.50;;;;;;;;;;6213995;23;20577;-53
2024/04/02 14:12:15;;;;;;;0.40;0.40;;;;;;;;;;6213642;23;20196;-51
2024/04/02 14:14:42;;;;;;;0.77;0.50;;;;;;;;;;6213242;23;20662;-53
2024/04/02 14:17:09;;;;;;;0.95;0.70;;;;;;;;;;6213859;23;20635;-55
2024/04/02 14:19:37;;;;;;;0.50;0.50;;;;;;;;;;6213892;23;20177;-51
2024/04/02 14:22:04;;;;;;;0.75;0.60;;;;;;;;;;6213232;23;20202;-54
2024/04/02 14:24:31;;;;;;;1.80;0.68;;;;;;;;;;6213864;23;20522;-54
2024/04/02 14:26:58;;;;;;;0.63;0.63;;;;;;;;;;6213839;23;20260;-52
2024/04/02 14:29:27;;;;;;;0.57;0.57;;;;;;;;;;6214249;23;20642;-51
2024/04/02 14:31:53;;;;;;;0.60;0.60;;;;;;;;;;6213596;23;20674;-53
2024/04/02 14:34:21;;;;;;;0.30;0.30;;;;;;;;;;6213649;23;20233;-51
2024/04/02 14:36:48;;;;;;;0.52;0.50;;;;;;;;;;6213572;23;20178;-52
2024/04/02 14:39:16;;;;;;;0.73;0.73;;;;;;;;;;6213936;23;20182;-50
2024/04/02 14:41:42;;;;;;;0.45;0.45;;;;;;;;;;6213489;23;20208;-51
2024/04/02 14:44:10;;;;;;;1.02;0.70;;;;;;;;;;6213504;23;20181;-51
2024/04/02 14:46:38;;;;;;;0.70;0.70;;;;;;;;;;6213616;23;20174;-52
2024/04/02 14:49:05;;;;;;;0.43;0.43;;;;;;;;;;6213049;23;20184;-51
2024/04/02 14:51:31;;;;;;;1.23;0.60;;;;;;;;;;6213388;23;20196;-53